Terminal Aerodrome Forecast
Issued by NWS Austin/San Antonio, TX

Home | Current Version | Previous Version | Text Only | Print | Product List | Glossary On
Versions: 1 2 3 4 5 6 7 8 9 10 11 12 13 14 15 16 17 18 19 20 21 22 23
000
FTUS44 KEWX 031910 AAB
TAFDRT
TAF AMD
KDRT 031910Z 0319/0418 34005KT P6SM -RA BKN007 OVC015
     FM032300 34006KT 5SM -SHRA OVC005
     FM040700 34007KT 3SM -RA BR OVC008=

USA.gov is the U.S. government's official web portal to all federal, state and local government web resources and services.